createdAt,value
2022-08-20T00:00:57.775Z,100849.88
2022-08-20T00:03:37.084Z,100862.00
2022-08-20T00:06:15.793Z,100868.41
2022-08-20T00:08:43.356Z,100865.31
2022-08-20T00:11:12.838Z,100874.88
2022-08-20T00:13:43.764Z,100872.84
2022-08-20T00:16:11.474Z,100875.75
2022-08-20T00:18:38.979Z,100882.72
2022-08-20T00:21:09.070Z,100878.19
2022-08-20T00:23:40.501Z,100885.63
2022-08-20T00:26:07.883Z,100882.50
2022-08-20T00:28:35.082Z,100886.06
2022-08-20T00:31:04.819Z,100888.69
2022-08-20T00:33:31.414Z,100879.31
2022-08-20T00:35:57.891Z,100879.78
2022-08-20T00:38:25.964Z,100881.91
2022-08-20T00:40:59.230Z,100884.19
2022-08-20T00:43:41.623Z,100886.94
2022-08-20T00:46:12.141Z,100881.41
2022-08-20T00:48:42.302Z,100880.44
2022-08-20T00:51:15.191Z,100884.78
2022-08-20T00:53:42.760Z,100884.78
2022-08-20T00:56:11.038Z,100881.03
2022-08-20T00:58:39.927Z,100887.19
2022-08-20T01:01:08.105Z,100880.41
2022-08-20T01:03:34.892Z,100884.91
2022-08-20T01:06:01.571Z,100893.16
2022-08-20T01:08:28.018Z,100895.28
2022-08-20T01:11:15.318Z,100895.28
2022-08-20T01:13:43.585Z,100900.16
2022-08-20T01:16:26.567Z,100902.28
2022-08-20T01:18:57.623Z,100897.56
2022-08-20T01:21:31.517Z,100904.81
2022-08-20T01:24:21.065Z,100896.91
2022-08-20T01:26:49.200Z,100901.97
2022-08-20T01:29:20.506Z,100895.63
2022-08-20T01:31:47.665Z,100904.19
2022-08-20T01:34:17.607Z,100904.03
2022-08-20T01:36:51.945Z,100902.28
2022-08-20T01:39:26.633Z,100904.88
2022-08-20T01:42:16.088Z,100903.41
2022-08-20T01:44:44.840Z,100912.50
2022-08-20T01:47:19.775Z,100915.75
2022-08-20T01:49:51.317Z,100912.84
2022-08-20T01:52:36.803Z,100920.44
2022-08-20T01:55:04.811Z,100909.09
2022-08-20T01:57:31.568Z,100916.03
2022-08-20T01:59:58.104Z,100920.88
2022-08-20T02:02:28.118Z,100910.38
2022-08-20T02:04:55.063Z,100902.09
2022-08-20T02:07:24.973Z,100900.63
2022-08-20T02:09:51.396Z,100896.41
2022-08-20T02:12:18.709Z,100904.88
2022-08-20T02:15:19.901Z,100908.25
2022-08-20T02:18:05.437Z,100911.50
2022-08-20T02:20:35.955Z,100905.03
2022-08-20T02:23:04.023Z,100911.97
2022-08-20T02:25:33.354Z,100902.09
2022-08-20T02:28:07.861Z,100904.69
2022-08-20T02:30:39.197Z,100911.66
2022-08-20T02:33:10.211Z,100913.47
2022-08-20T02:35:38.455Z,100914.94
2022-08-20T02:38:05.135Z,100905.03
2022-08-20T02:40:32.049Z,100914.78
2022-08-20T02:43:02.634Z,100914.09
2022-08-20T02:45:37.097Z,100910.53
2022-08-20T02:48:04.372Z,100918.31
2022-08-20T02:50:31.549Z,100917.31
2022-08-20T02:52:57.984Z,100914.56
2022-08-20T02:55:27.630Z,100902.91
2022-08-20T02:58:00.581Z,100907.78
2022-08-20T03:00:38.183Z,100905.19
2022-08-20T03:03:08.155Z,100907.91
2022-08-20T03:05:35.267Z,100908.38
2022-08-20T03:08:03.756Z,100910.16
2022-08-20T03:10:33.958Z,100919.22
2022-08-20T03:13:02.615Z,100930.28
2022-08-20T03:15:31.956Z,100916.19
2022-08-20T03:17:59.282Z,100914.38
2022-08-20T03:20:26.926Z,100927.38
2022-08-20T03:22:55.101Z,100925.13
2022-08-20T03:25:21.979Z,100931.41
2022-08-20T03:27:53.955Z,100917.63
2022-08-20T03:30:25.045Z,100922.84
2022-08-20T03:32:51.774Z,100929.34
2022-08-20T03:35:25.190Z,100935.78
2022-08-20T03:37:59.883Z,100936.09
2022-08-20T03:40:30.531Z,100935.28
2022-08-20T03:42:58.447Z,100932.22
2022-08-20T03:45:27.754Z,100933.81
2022-08-20T03:47:55.294Z,100927.00
2022-08-20T03:50:26.856Z,100933.66
2022-08-20T03:52:55.086Z,100933.66
2022-08-20T03:55:23.253Z,100935.44
2022-08-20T03:57:54.357Z,100934.34
2022-08-20T04:00:29.295Z,100933.19
2022-08-20T04:02:57.119Z,100928.50
2022-08-20T04:05:25.464Z,100936.63
2022-08-20T04:08:00.201Z,100925.13
2022-08-20T04:10:30.759Z,100922.88
2022-08-20T04:12:57.701Z,100929.03
2022-08-20T04:15:25.048Z,100927.41
2022-08-20T04:17:53.245Z,100936.47
2022-08-20T04:20:26.158Z,100947.94
2022-08-20T04:22:59.193Z,100941.16
2022-08-20T04:25:52.032Z,100941.97
2022-08-20T04:28:26.942Z,100948.47
2022-08-20T04:30:55.327Z,100958.34
2022-08-20T04:33:34.027Z,100956.22
2022-08-20T04:36:05.813Z,100951.88
2022-08-20T04:38:49.793Z,100955.09
2022-08-20T04:41:22.979Z,100949.09
2022-08-20T04:43:55.199Z,100957.03
2022-08-20T04:46:25.799Z,100960.91
2022-08-20T04:48:53.139Z,100958.50
2022-08-20T04:51:22.951Z,100962.06
2022-08-20T04:53:53.644Z,100970.16
2022-08-20T04:56:28.647Z,100976.16
2022-08-20T04:58:58.069Z,100978.25
2022-08-20T05:01:26.325Z,100976.16
2022-08-20T05:03:55.351Z,100979.22
2022-08-20T05:06:25.723Z,100974.03
2022-08-20T05:08:56.963Z,100976.47
2022-08-20T05:11:33.946Z,100979.69
2022-08-20T05:14:05.472Z,100985.22
2022-08-20T05:16:37.501Z,100992.66
2022-08-20T05:19:04.125Z,100996.88
2022-08-20T05:21:30.751Z,100987.00
2022-08-20T05:23:57.172Z,100990.91
2022-08-20T05:26:26.995Z,100995.59
2022-08-20T05:28:58.335Z,100999.31
2022-08-20T05:31:31.797Z,100994.78
2022-08-20T05:34:09.410Z,100997.56
2022-08-20T05:36:42.848Z,100991.38
2022-08-20T05:39:10.463Z,100991.38
2022-08-20T05:41:38.382Z,100991.84
2022-08-20T05:44:09.815Z,100995.94
2022-08-20T05:46:40.976Z,101003.69
2022-08-20T05:49:09.877Z,100997.53
2022-08-20T05:51:37.435Z,100999.00
2022-08-20T05:54:06.046Z,101005.97
2022-08-20T05:56:33.886Z,101001.28
2022-08-20T05:59:03.903Z,101012.16
2022-08-20T06:01:31.628Z,101000.13
2022-08-20T06:04:17.435Z,101001.25
2022-08-20T06:06:45.611Z,101010.66
2022-08-20T06:09:14.486Z,101010.16
2022-08-20T06:11:41.470Z,101003.53
2022-08-20T06:14:08.035Z,101007.09
2022-08-20T06:16:34.674Z,101003.22
2022-08-20T06:19:04.761Z,101009.50
2022-08-20T06:21:31.395Z,100994.31
2022-08-20T06:24:01.667Z,101007.09
2022-08-20T06:26:29.920Z,101010.34
2022-08-20T06:29:04.534Z,100995.41
2022-08-20T06:31:31.126Z,101004.47
2022-08-20T06:33:58.073Z,100996.56
2022-08-20T06:36:25.335Z,101001.75
2022-08-20T06:38:51.867Z,100997.53
2022-08-20T06:41:18.797Z,100997.69
2022-08-20T06:43:45.212Z,100999.00
2022-08-20T06:46:12.865Z,100997.53
2022-08-20T06:48:39.403Z,101004.00
2022-08-20T06:51:06.743Z,101006.59
2022-08-20T06:53:33.378Z,101005.28
2022-08-20T06:56:00.622Z,101002.03
2022-08-20T06:58:37.557Z,101009.00
2022-08-20T07:01:11.394Z,101015.44
2022-08-20T07:03:40.553Z,101016.25
2022-08-20T07:06:25.941Z,101017.84
2022-08-20T07:08:54.521Z,101016.69
2022-08-20T07:11:27.414Z,101014.22
2022-08-20T07:13:57.082Z,101021.69
2022-08-20T07:16:25.482Z,101027.19
2022-08-20T07:18:52.111Z,101033.19
2022-08-20T07:21:18.609Z,101033.34
2022-08-20T07:23:45.324Z,101040.47
2022-08-20T07:26:12.894Z,101043.06
2022-08-20T07:28:39.369Z,101038.34
2022-08-20T07:31:24.696Z,101041.94
2022-08-20T07:33:51.281Z,101034.59
2022-08-20T07:36:20.283Z,101043.94
2022-08-20T07:38:50.777Z,101040.41
2022-08-20T07:41:17.415Z,101042.78
2022-08-20T07:43:47.737Z,101045.22
2022-08-20T07:46:24.693Z,101038.59
2022-08-20T07:48:58.702Z,101045.28
2022-08-20T07:51:25.583Z,101052.53
2022-08-20T07:53:53.563Z,101058.38
2022-08-20T07:56:28.312Z,101063.38
2022-08-20T07:59:02.097Z,101059.06
2022-08-20T08:01:31.776Z,101065.28
2022-08-20T08:04:04.020Z,101069.31
2022-08-20T08:06:31.820Z,101070.25
2022-08-20T08:09:10.884Z,101064.75
2022-08-20T08:11:46.399Z,101072.16
2022-08-20T08:14:16.209Z,101080.00
2022-08-20T08:16:45.567Z,101072.38
2022-08-20T08:19:16.307Z,101065.47
2022-08-20T08:21:44.223Z,101073.47
2022-08-20T08:24:13.489Z,101068.03
2022-08-20T08:26:42.399Z,101076.44
2022-08-20T08:29:08.821Z,101068.75
2022-08-20T08:31:35.436Z,101075.50
2022-08-20T08:34:02.023Z,101074.06
2022-08-20T08:36:28.570Z,101069.72
2022-08-20T08:38:56.514Z,101078.47
2022-08-20T08:41:47.990Z,101082.25
2022-08-20T08:44:24.539Z,101082.03
2022-08-20T08:47:01.054Z,101092.75
2022-08-20T08:49:38.136Z,101079.94
2022-08-20T08:52:12.154Z,101081.69
2022-08-20T08:54:46.538Z,101086.91
2022-08-20T08:57:13.162Z,101094.66
2022-08-20T08:59:52.118Z,101095.84
2022-08-20T09:02:30.774Z,101097.91
2022-08-20T09:05:00.797Z,101099.97
2022-08-20T09:07:31.489Z,101099.94
2022-08-20T09:09:58.919Z,101091.78
2022-08-20T09:12:29.752Z,101096.56
2022-08-20T09:14:57.362Z,101095.88
2022-08-20T09:17:25.448Z,101093.06
2022-08-20T09:19:52.344Z,101098.84
2022-08-20T09:22:22.200Z,101100.81
2022-08-20T09:24:49.996Z,101108.81
2022-08-20T09:27:17.386Z,101109.66
2022-08-20T09:29:43.957Z,101108.97
2022-08-20T09:32:14.832Z,101105.03
2022-08-20T09:34:44.734Z,101109.50
2022-08-20T09:37:12.258Z,101104.13
2022-08-20T09:39:39.455Z,101105.94
2022-08-20T09:42:20.280Z,101101.47
2022-08-20T09:44:47.345Z,101100.53
2022-08-20T09:47:14.614Z,101091.94
2022-08-20T09:49:41.813Z,101101.38
2022-08-20T09:52:10.416Z,101102.75
2022-08-20T09:54:39.884Z,101103.78
2022-08-20T09:57:17.497Z,101105.81
2022-08-20T09:59:57.162Z,101113.00
2022-08-20T10:02:25.646Z,101113.34
2022-08-20T10:04:52.185Z,101103.00
2022-08-20T10:07:20.044Z,101106.50
2022-08-20T10:09:46.538Z,101110.31
2022-08-20T10:12:13.407Z,101113.63
2022-08-20T10:14:41.682Z,101110.13
2022-08-20T10:17:08.313Z,101117.84
2022-08-20T10:19:34.851Z,101112.59
2022-08-20T10:22:01.833Z,101107.81
2022-08-20T10:24:29.782Z,101115.72
2022-08-20T10:26:58.773Z,101109.25
2022-08-20T10:29:27.258Z,101110.88
2022-08-20T10:32:07.406Z,101123.22
2022-08-20T10:34:33.885Z,101116.63
2022-08-20T10:37:00.924Z,101117.34
2022-08-20T10:39:27.652Z,101111.81
2022-08-20T10:41:58.510Z,101110.06
2022-08-20T10:44:25.984Z,101109.72
2022-08-20T10:46:53.600Z,101113.53
2022-08-20T10:49:24.856Z,101114.72
2022-08-20T10:51:51.379Z,101111.75
2022-08-20T10:54:18.547Z,101113.09
2022-08-20T10:56:45.069Z,101115.25
2022-08-20T10:59:11.511Z,101120.47
2022-08-20T11:01:38.213Z,101124.16
2022-08-20T11:04:05.099Z,101127.72
2022-08-20T11:06:31.566Z,101114.56
2022-08-20T11:08:58.461Z,101110.41
2022-08-20T11:11:25.606Z,101122.03
2022-08-20T11:13:52.195Z,101120.75
2022-08-20T11:16:18.810Z,101119.09
2022-08-20T11:18:47.627Z,101117.59
2022-08-20T11:21:14.588Z,101122.16
2022-08-20T11:23:41.527Z,101126.19
2022-08-20T11:26:08.628Z,101122.44
2022-08-20T11:28:35.228Z,101124.69
2022-08-20T11:31:01.924Z,101127.06
2022-08-20T11:33:28.640Z,101113.63
2022-08-20T11:35:55.858Z,101115.28
2022-08-20T11:38:22.358Z,101123.69
2022-08-20T11:40:48.894Z,101110.25
2022-08-20T11:43:17.424Z,101123.47
2022-08-20T11:45:47.561Z,101111.72
2022-08-20T11:48:21.814Z,101109.38
2022-08-20T11:50:50.201Z,101114.34
2022-08-20T11:53:17.646Z,101112.13
2022-08-20T11:55:44.619Z,101102.28
2022-08-20T11:58:11.497Z,101115.28
2022-08-20T12:00:38.278Z,101109.81
2022-08-20T12:03:09.456Z,101113.69
2022-08-20T12:05:41.526Z,101113.69
2022-08-20T12:08:09.159Z,101110.94
2022-08-20T12:10:36.710Z,101111.16
2022-08-20T12:13:04.578Z,101116.59
2022-08-20T12:15:32.885Z,101113.31
2022-08-20T12:17:59.779Z,101120.50
2022-08-20T12:20:26.714Z,101109.47
2022-08-20T12:22:54.616Z,101112.44
2022-08-20T12:25:21.391Z,101113.66
2022-08-20T12:27:47.908Z,101114.81
2022-08-20T12:30:17.760Z,101116.72
2022-08-20T12:32:44.763Z,101124.25
2022-08-20T12:35:12.482Z,101122.91
2022-08-20T12:37:39.445Z,101120.59
2022-08-20T12:40:10.739Z,101125.66
2022-08-20T12:42:37.802Z,101127.25
2022-08-20T12:45:05.829Z,101117.78
2022-08-20T12:47:35.218Z,101112.56
2022-08-20T12:50:06.570Z,101109.47
2022-08-20T12:52:33.702Z,101107.38
2022-08-20T12:55:01.160Z,101111.72
2022-08-20T12:57:28.987Z,101109.22
2022-08-20T12:59:58.997Z,101117.00
2022-08-20T13:02:26.094Z,101105.41
2022-08-20T13:04:52.691Z,101107.31
2022-08-20T13:07:19.325Z,101102.28
2022-08-20T13:09:45.855Z,101098.31
2022-08-20T13:12:14.435Z,101097.31
2022-08-20T13:14:41.815Z,101094.09
2022-08-20T13:17:08.947Z,101094.25
2022-08-20T13:19:37.472Z,101095.94
2022-08-20T13:22:05.501Z,101086.78
2022-08-20T13:24:32.229Z,101096.00
2022-08-20T13:27:11.093Z,101082.56
2022-08-20T13:29:38.367Z,101087.56
2022-08-20T13:32:05.563Z,101082.38
2022-08-20T13:34:32.124Z,101075.34
2022-08-20T13:36:58.783Z,101070.38
2022-08-20T13:39:25.831Z,101085.53
2022-08-20T13:41:52.286Z,101076.34
2022-08-20T13:44:32.980Z,101069.19
2022-08-20T13:49:57.557Z,101072.47
2022-08-20T13:52:24.974Z,101066.09
2022-08-20T13:54:52.667Z,101069.53
2022-08-20T13:57:20.979Z,101074.69
2022-08-20T13:59:50.639Z,101074.34
2022-08-20T14:02:17.558Z,101079.13
2022-08-20T14:04:45.231Z,101078.41
2022-08-20T14:07:28.852Z,101082.06
2022-08-20T14:10:01.097Z,101073.75
2022-08-20T14:12:30.519Z,101067.31
2022-08-20T14:14:57.794Z,101064.44
2022-08-20T14:17:27.770Z,101059.41
2022-08-20T14:20:01.964Z,101064.53
2022-08-20T14:22:29.719Z,101063.81
2022-08-20T14:24:57.482Z,101054.19
2022-08-20T14:27:29.222Z,101056.53
2022-08-20T14:29:58.853Z,101066.72
2022-08-20T14:32:25.884Z,101068.38
2022-08-20T14:34:53.806Z,101071.81
2022-08-20T14:37:31.174Z,101070.84
2022-08-20T14:40:08.143Z,101070.47
2022-08-20T14:42:35.436Z,101076.44
2022-08-20T14:45:04.356Z,101069.47
2022-08-20T14:47:35.156Z,101074.88
2022-08-20T14:50:08.742Z,101065.56
2022-08-20T14:52:36.676Z,101058.44
2022-08-20T14:55:05.182Z,101070.81
2022-08-20T14:57:32.401Z,101060.81
2022-08-20T14:59:58.968Z,101067.16
2022-08-20T15:02:25.950Z,101065.88
2022-08-20T15:04:54.405Z,101069.63
2022-08-20T15:07:32.171Z,101076.44
2022-08-20T15:10:01.108Z,101068.91
2022-08-20T15:12:28.591Z,101068.09
2022-08-20T15:14:59.704Z,101064.00
2022-08-20T15:17:38.130Z,101064.94
2022-08-20T15:20:10.688Z,101063.38
2022-08-20T15:22:48.731Z,101061.13
2022-08-20T15:25:18.773Z,101071.59
2022-08-20T15:27:47.016Z,101069.16
2022-08-20T15:30:21.041Z,101077.75
2022-08-20T15:32:51.401Z,101071.69
2022-08-20T15:35:21.508Z,101070.38
2022-08-20T15:37:50.250Z,101075.41
2022-08-20T15:40:27.838Z,101076.59
2022-08-20T15:42:55.995Z,101075.31
2022-08-20T15:45:22.465Z,101069.47
2022-08-20T15:47:54.060Z,101072.03
2022-08-20T15:50:48.318Z,101067.97
2022-08-20T15:53:25.114Z,101065.06
2022-08-20T15:55:59.430Z,101067.91
2022-08-20T15:59:03.938Z,101079.06
2022-08-20T16:01:48.964Z,101077.03
2022-08-20T16:04:25.974Z,101071.97
2022-08-20T16:07:00.239Z,101079.44
2022-08-20T16:09:46.800Z,101074.31
2022-08-20T16:12:31.554Z,101083.03
2022-08-20T16:15:08.724Z,101078.03
2022-08-20T16:17:47.831Z,101084.78
2022-08-20T16:20:18.690Z,101082.81
2022-08-20T16:22:46.799Z,101094.91
2022-08-20T16:25:16.615Z,101098.47
2022-08-20T16:27:57.891Z,101096.50
2022-08-20T16:30:37.450Z,101105.66
2022-08-20T16:33:14.641Z,101093.22
2022-08-20T16:35:51.034Z,101099.91
2022-08-20T16:38:24.855Z,101102.19
2022-08-20T16:40:57.115Z,101095.91
2022-08-20T16:43:56.272Z,101102.25
2022-08-20T16:46:34.982Z,101104.72
2022-08-20T16:49:11.249Z,101099.63
2022-08-20T16:51:41.369Z,101099.00
2022-08-20T16:54:10.283Z,101099.72
2022-08-20T16:56:42.631Z,101104.66
2022-08-20T16:59:12.634Z,101103.69
2022-08-20T17:02:08.294Z,101108.69
2022-08-20T17:04:58.535Z,101104.53
2022-08-20T17:07:51.212Z,101109.75
2022-08-20T17:10:27.855Z,101111.25
2022-08-20T17:12:59.319Z,101119.50
2022-08-20T17:15:33.505Z,101118.22
2022-08-20T17:18:28.769Z,101120.28
2022-08-20T17:21:11.808Z,101118.38
2022-08-20T17:23:55.527Z,101121.38
2022-08-20T17:26:36.003Z,101119.22
2022-08-20T17:29:21.182Z,101124.41
2022-08-20T17:31:51.840Z,101123.69
2022-08-20T17:34:23.200Z,101123.19
2022-08-20T17:37:10.364Z,101135.31
2022-08-20T17:39:46.593Z,101135.03
2022-08-20T17:42:26.209Z,101132.50
2022-08-20T17:45:21.801Z,101132.94
2022-08-20T17:47:48.686Z,101135.06
2022-08-20T17:50:20.116Z,101138.19
2022-08-20T17:52:50.853Z,101140.16
2022-08-20T17:55:19.316Z,101143.19
2022-08-20T17:57:49.598Z,101136.47
2022-08-20T18:00:32.939Z,101147.94
2022-08-20T18:03:13.145Z,101139.16
2022-08-20T18:05:39.735Z,101145.75
2022-08-20T18:08:16.531Z,101144.34
2022-08-20T18:10:56.781Z,101146.78
2022-08-20T18:13:38.201Z,101150.34
2022-08-20T18:16:25.512Z,101148.31
2022-08-20T18:19:16.295Z,101149.34
2022-08-20T18:22:01.457Z,101159.59
2022-08-20T18:24:37.015Z,101156.38
2022-08-20T18:27:09.035Z,101162.25
2022-08-20T18:29:41.032Z,101168.97
2022-08-20T18:32:24.092Z,101169.66
2022-08-20T18:34:52.583Z,101171.50
2022-08-20T18:37:19.002Z,101170.91
2022-08-20T18:39:48.678Z,101168.84
2022-08-20T18:42:27.604Z,101173.44
2022-08-20T18:44:58.639Z,101183.91
2022-08-20T18:47:34.279Z,101179.78
2022-08-20T18:50:15.901Z,101185.03
2022-08-20T18:52:50.259Z,101186.56
2022-08-20T18:55:41.809Z,101181.94
2022-08-20T18:58:12.810Z,101179.97
2022-08-20T19:00:47.670Z,101179.72
2022-08-20T19:03:30.344Z,101172.56
2022-08-20T19:06:05.703Z,101174.28
2022-08-20T19:09:09.779Z,101183.50
2022-08-20T19:11:48.141Z,101187.84
2022-08-20T19:14:54.430Z,101186.13
2022-08-20T19:17:40.407Z,101187.25
2022-08-20T19:20:18.025Z,101185.16
2022-08-20T19:22:47.924Z,101187.47
2022-08-20T19:25:51.203Z,101185.53
2022-08-20T19:28:25.404Z,101181.94
2022-08-20T19:30:52.198Z,101182.63
2022-08-20T19:33:31.952Z,101180.06
2022-08-20T19:36:22.189Z,101186.34
2022-08-20T19:38:59.109Z,101192.75
2022-08-20T19:41:35.179Z,101193.28
2022-08-20T19:44:02.863Z,101196.59
2022-08-20T19:46:36.169Z,101196.91
2022-08-20T19:49:19.351Z,101195.84
2022-08-20T19:52:10.361Z,101195.06
2022-08-20T19:54:46.717Z,101190.75
2022-08-20T19:57:14.209Z,101200.25
2022-08-20T19:59:52.133Z,101203.47
2022-08-20T20:02:24.391Z,101205.19
2022-08-20T20:04:55.581Z,101209.81
2022-08-20T20:07:41.041Z,101211.94
2022-08-20T20:10:11.714Z,101212.25
2022-08-20T20:12:39.234Z,101205.81
2022-08-20T20:15:07.305Z,101205.16
2022-08-20T20:17:36.462Z,101208.06
2022-08-20T20:20:32.434Z,101201.97
2022-08-20T20:23:06.548Z,101201.97
2022-08-20T20:25:34.079Z,101207.72
2022-08-20T20:28:24.411Z,101202.72
2022-08-20T20:30:50.994Z,101215.56
2022-08-20T20:33:37.592Z,101209.75
2022-08-20T20:36:18.009Z,101204.88
2022-08-20T20:39:00.447Z,101202.59
2022-08-20T20:41:29.789Z,101214.13
2022-08-20T20:44:17.705Z,101206.16
2022-08-20T20:46:47.279Z,101216.72
2022-08-20T20:50:01.333Z,101215.59
2022-08-20T20:52:37.442Z,101215.25
2022-08-20T20:55:15.169Z,101219.16
2022-08-20T20:57:42.090Z,101211.88
2022-08-20T21:00:13.050Z,101208.78
2022-08-20T21:02:40.640Z,101212.34
2022-08-20T21:05:07.502Z,101217.84
2022-08-20T21:07:34.151Z,101213.81
2022-08-20T21:10:00.576Z,101220.94
2022-08-20T21:12:32.551Z,101214.63
2022-08-20T21:14:59.231Z,101224.00
2022-08-20T21:17:27.157Z,101222.56
2022-08-20T21:19:54.462Z,101225.16
2022-08-20T21:22:21.732Z,101222.88
2022-08-20T21:24:51.258Z,101224.63
2022-08-20T21:27:24.395Z,101220.13
2022-08-20T21:29:52.518Z,101225.94
2022-08-20T21:32:19.014Z,101227.56
2022-08-20T21:34:46.211Z,101226.22
2022-08-20T21:37:12.680Z,101228.97
2022-08-20T21:39:39.656Z,101230.78
2022-08-20T21:42:18.512Z,101226.88
2022-08-20T21:45:20.451Z,101230.63
2022-08-20T21:47:48.795Z,101234.16
2022-08-20T21:50:20.438Z,101235.16
2022-08-20T21:52:55.364Z,101228.00
2022-08-20T21:55:39.437Z,101233.22
2022-08-20T21:58:07.082Z,101234.16
2022-08-20T22:00:54.650Z,101226.66
2022-08-20T22:03:25.569Z,101236.00
2022-08-20T22:05:52.495Z,101239.53
2022-08-20T22:08:20.179Z,101236.59
2022-08-20T22:10:47.046Z,101239.13
2022-08-20T22:13:23.043Z,101233.91
2022-08-20T22:15:49.632Z,101242.66
2022-08-20T22:18:17.714Z,101238.41
2022-08-20T22:20:44.478Z,101231.59
2022-08-20T22:23:11.806Z,101229.84
2022-08-20T22:25:38.318Z,101225.19
2022-08-20T22:28:04.909Z,101230.69
2022-08-20T22:30:31.966Z,101223.06
2022-08-20T22:33:05.231Z,101225.44
2022-08-20T22:35:32.290Z,101224.19
2022-08-20T22:37:59.481Z,101214.13
2022-08-20T22:40:29.712Z,101217.50
2022-08-20T22:42:56.783Z,101220.47
2022-08-20T22:45:24.654Z,101219.75
2022-08-20T22:47:51.816Z,101224.78
2022-08-20T22:50:22.647Z,101218.41
2022-08-20T22:52:49.208Z,101223.22
2022-08-20T22:55:16.847Z,101223.84
2022-08-20T22:57:46.741Z,101216.44
2022-08-20T23:00:19.837Z,101213.47
2022-08-20T23:02:52.829Z,101218.41
2022-08-20T23:05:22.945Z,101219.84
2022-08-20T23:07:53.466Z,101219.97
2022-08-20T23:10:21.886Z,101217.84
2022-08-20T23:12:48.361Z,101214.53
2022-08-20T23:15:16.646Z,101205.47
2022-08-20T23:17:43.524Z,101210.84
2022-08-20T23:20:13.123Z,101210.16
2022-08-20T23:22:39.586Z,101211.59
2022-08-20T23:25:08.015Z,101210.28
2022-08-20T23:27:41.334Z,101202.56
2022-08-20T23:30:08.260Z,101206.59
2022-08-20T23:32:34.842Z,101196.81
2022-08-20T23:35:01.932Z,101197.94
2022-08-20T23:37:28.511Z,101199.19
2022-08-20T23:39:56.562Z,101200.44
2022-08-20T23:42:23.114Z,101210.00
2022-08-20T23:44:49.605Z,101210.25
2022-08-20T23:47:20.150Z,101196.09
2022-08-20T23:49:47.039Z,101198.78
2022-08-20T23:52:13.553Z,101194.31
2022-08-20T23:54:40.894Z,101192.31
2022-08-20T23:57:08.105Z,101191.81
2022-08-20T23:59:35.736Z,101185.97
